This is the latest recevied weather packets stored in our database for station/object AA7F. If no packets are shown the sender has not sent any weather packets the latest 10 day(s).
| Time | Temp. | Humidity | Pressure | Rain* | Wind** | Luminosity | Snow |
|---|---|---|---|---|---|---|---|
| 1777614606 | 11.11° C | 61% | 1017.5 hPa | 0 mm | - | 0 W/m² | - |
| 1777614301 | 11.11° C | 60% | 1017.3 hPa | 0 mm | - | 0 W/m² | - |
| 1777613997 | 11.11° C | 61% | 1017.4 hPa | 0 mm | - | 0 W/m² | - |
| 1777613693 | 11.67° C | 58% | 1017.4 hPa | 0 mm | - | 0 W/m² | - |
| 1777613390 | 11.67° C | 53% | 1017.5 hPa | 0 mm | - | 0 W/m² | - |
| 1777613086 | 12.22° C | 54% | 1017.4 hPa | 0 mm | - | 0 W/m² | - |
| 1777612783 | 13.33° C | 51% | 1017.1 hPa | 0 mm | - | 0 W/m² | - |
| 1777612478 | 12.78° C | 53% | 1017.2 hPa | 0 mm | - | 0 W/m² | - |
| 1777612175 | 12.78° C | 54% | 1017.3 hPa | 0 mm | - | 0 W/m² | - |
| 1777611870 | 13.33° C | 51% | 1017.2 hPa | 0 mm | - | 0 W/m² | - |
| 1777611566 | 13.33° C | 52% | 1017.4 hPa | 0 mm | - | 0 W/m² | - |
| 1777611263 | 12.78° C | 52% | 1017.3 hPa | 0 mm | - | 0 W/m² | - |
| 1777610960 | 13.89° C | 50% | 1017.1 hPa | 0 mm | - | 0 W/m² | - |
| 1777610654 | 13.89° C | 49% | 1017.2 hPa | 0 mm | - | 0 W/m² | - |
| 1777610349 | 13.33° C | 51% | 1017.2 hPa | 0 mm | - | 0 W/m² | - |
| 1777610045 | 13.89° C | 48% | 1017 hPa | 0 mm | - | 0 W/m² | - |
| 1777609742 | 13.89° C | 48% | 1017.1 hPa | 0 mm | - | 0 W/m² | - |
| 1777609438 | 15° C | 46% | 1017 hPa | 0 mm | - | 0 W/m² | - |
| 1777609136 | 15.56° C | 41% | 1016.9 hPa | 0 mm | - | 0 W/m² | - |
| 1777608833 | 16.11° C | 40% | 1016.8 hPa | 0 mm | - | 0 W/m² | - |
| 1777608529 | 15.56° C | 41% | 1017 hPa | 0 mm | - | 0 W/m² | - |
| 1777608227 | 15.56° C | 42% | 1016.6 hPa | 0 mm | - | 0 W/m² | - |
| 1777607925 | 15.56° C | 42% | 1016.8 hPa | 0 mm | - | 0 W/m² | - |
| 1777607620 | 15.56° C | 42% | 1016.8 hPa | 0 mm | - | 0 W/m² | - |
| 1777607317 | 15.56° C | 43% | 1016.7 hPa | 0 mm | - | 0 W/m² | - |
* Rain latest hour (hover to see other rain measurements)
** Current wind speed in m/s (hover to see current wind gust speed)